sensor_id;sensor_type;location;lat;lon;timestamp;pressure;altitude;pressure_sealevel;temperature;humidity
25947;BME280;13745;51.470;9.894;2022-08-21T00:00:27;99535.06;;;19.68;63.66
25947;BME280;13745;51.470;9.894;2022-08-21T00:03:15;99525.41;;;19.62;63.86
25947;BME280;13745;51.470;9.894;2022-08-21T00:06:01;99539.50;;;19.61;63.84
25947;BME280;13745;51.470;9.894;2022-08-21T00:08:49;99534.38;;;19.59;64.12
25947;BME280;13745;51.470;9.894;2022-08-21T00:11:36;99529.94;;;19.55;63.95
25947;BME280;13745;51.470;9.894;2022-08-21T00:14:22;99528.91;;;19.48;64.26
25947;BME280;13745;51.470;9.894;2022-08-21T00:17:08;99522.41;;;19.40;64.50
25947;BME280;13745;51.470;9.894;2022-08-21T00:19:54;99522.78;;;19.27;64.76
25947;BME280;13745;51.470;9.894;2022-08-21T00:22:40;99518.16;;;19.16;65.04
25947;BME280;13745;51.470;9.894;2022-08-21T00:25:27;99525.81;;;19.10;65.42
25947;BME280;13745;51.470;9.894;2022-08-21T00:28:14;99528.91;;;19.09;65.63
25947;BME280;13745;51.470;9.894;2022-08-21T00:31:00;99523.97;;;19.14;65.45
25947;BME280;13745;51.470;9.894;2022-08-21T00:33:48;99522.50;;;19.17;65.35
25947;BME280;13745;51.470;9.894;2022-08-21T00:36:34;99524.53;;;19.20;65.44
25947;BME280;13745;51.470;9.894;2022-08-21T00:39:20;99523.75;;;19.19;65.25
25947;BME280;13745;51.470;9.894;2022-08-21T00:42:08;99513.09;;;19.18;65.41
25947;BME280;13745;51.470;9.894;2022-08-21T00:44:53;99519.28;;;19.15;65.41
25947;BME280;13745;51.470;9.894;2022-08-21T00:47:39;99511.28;;;19.10;65.58
25947;BME280;13745;51.470;9.894;2022-08-21T00:50:28;99507.38;;;19.11;65.56
25947;BME280;13745;51.470;9.894;2022-08-21T00:53:16;99509.34;;;19.10;65.41
25947;BME280;13745;51.470;9.894;2022-08-21T00:56:04;99519.06;;;19.08;65.39
25947;BME280;13745;51.470;9.894;2022-08-21T00:58:52;99520.66;;;19.09;65.40
25947;BME280;13745;51.470;9.894;2022-08-21T01:01:39;99510.84;;;19.08;65.34
25947;BME280;13745;51.470;9.894;2022-08-21T01:04:25;99507.75;;;19.09;65.32
25947;BME280;13745;51.470;9.894;2022-08-21T01:07:12;99511.97;;;19.07;65.18
25947;BME280;13745;51.470;9.894;2022-08-21T01:09:58;99521.13;;;18.99;65.26
25947;BME280;13745;51.470;9.894;2022-08-21T01:12:44;99529.63;;;18.94;65.41
25947;BME280;13745;51.470;9.894;2022-08-21T01:15:34;99524.81;;;18.91;65.56
25947;BME280;13745;51.470;9.894;2022-08-21T01:18:21;99520.94;;;18.92;65.62
25947;BME280;13745;51.470;9.894;2022-08-21T01:21:11;99506.72;;;18.90;65.76
25947;BME280;13745;51.470;9.894;2022-08-21T01:23:57;99513.84;;;18.91;65.93
25947;BME280;13745;51.470;9.894;2022-08-21T01:26:44;99509.72;;;18.85;66.22
25947;BME280;13745;51.470;9.894;2022-08-21T01:29:34;99505.72;;;18.83;66.45
25947;BME280;13745;51.470;9.894;2022-08-21T01:32:21;99501.03;;;18.84;66.50
25947;BME280;13745;51.470;9.894;2022-08-21T01:35:09;99511.31;;;18.86;66.49
25947;BME280;13745;51.470;9.894;2022-08-21T01:37:57;99499.88;;;18.84;66.44
25947;BME280;13745;51.470;9.894;2022-08-21T01:40:43;99511.13;;;18.80;66.40
25947;BME280;13745;51.470;9.894;2022-08-21T01:43:29;99503.88;;;18.75;66.29
25947;BME280;13745;51.470;9.894;2022-08-21T01:46:15;99498.97;;;18.69;66.37
25947;BME280;13745;51.470;9.894;2022-08-21T01:49:02;99501.13;;;18.63;66.34
25947;BME280;13745;51.470;9.894;2022-08-21T01:51:48;99498.72;;;18.62;66.37
25947;BME280;13745;51.470;9.894;2022-08-21T01:54:35;99497.13;;;18.61;66.47
25947;BME280;13745;51.470;9.894;2022-08-21T01:57:22;99502.63;;;18.61;66.43
25947;BME280;13745;51.470;9.894;2022-08-21T02:00:11;99509.59;;;18.59;66.52
25947;BME280;13745;51.470;9.894;2022-08-21T02:02:57;99507.88;;;18.54;66.67
25947;BME280;13745;51.470;9.894;2022-08-21T02:05:43;99506.75;;;18.55;66.67
25947;BME280;13745;51.470;9.894;2022-08-21T02:08:29;99503.66;;;18.57;66.72
25947;BME280;13745;51.470;9.894;2022-08-21T02:11:16;99500.91;;;18.57;66.66
25947;BME280;13745;51.470;9.894;2022-08-21T02:14:02;99495.19;;;18.50;66.70
25947;BME280;13745;51.470;9.894;2022-08-21T02:16:48;99495.44;;;18.45;66.62
25947;BME280;13745;51.470;9.894;2022-08-21T02:19:34;99498.50;;;18.43;66.66
25947;BME280;13745;51.470;9.894;2022-08-21T02:22:20;99490.28;;;18.43;66.61
25947;BME280;13745;51.470;9.894;2022-08-21T02:25:07;99485.47;;;18.40;66.50
25947;BME280;13745;51.470;9.894;2022-08-21T02:27:55;99489.94;;;18.33;66.57
25947;BME280;13745;51.470;9.894;2022-08-21T02:30:45;99485.00;;;18.27;66.48
25947;BME280;13745;51.470;9.894;2022-08-21T02:33:31;99477.47;;;18.24;66.38
25947;BME280;13745;51.470;9.894;2022-08-21T02:36:18;99474.63;;;18.20;66.28
25947;BME280;13745;51.470;9.894;2022-08-21T02:39:03;99481.13;;;18.16;66.40
25947;BME280;13745;51.470;9.894;2022-08-21T02:41:49;99488.31;;;18.09;66.38
25947;BME280;13745;51.470;9.894;2022-08-21T02:44:37;99488.06;;;18.02;66.33
25947;BME280;13745;51.470;9.894;2022-08-21T02:47:23;99490.41;;;17.92;66.45
25947;BME280;13745;51.470;9.894;2022-08-21T02:50:08;99491.31;;;17.84;66.53
25947;BME280;13745;51.470;9.894;2022-08-21T02:52:55;99492.78;;;17.81;66.35
25947;BME280;13745;51.470;9.894;2022-08-21T02:55:41;99495.38;;;17.78;66.45
25947;BME280;13745;51.470;9.894;2022-08-21T02:58:29;99489.44;;;17.76;66.44
25947;BME280;13745;51.470;9.894;2022-08-21T03:01:17;99487.84;;;17.75;66.28
25947;BME280;13745;51.470;9.894;2022-08-21T03:04:03;99482.25;;;17.71;66.25
25947;BME280;13745;51.470;9.894;2022-08-21T03:06:49;99484.41;;;17.66;66.25
25947;BME280;13745;51.470;9.894;2022-08-21T03:09:35;99478.00;;;17.62;66.31
25947;BME280;13745;51.470;9.894;2022-08-21T03:12:21;99473.19;;;17.59;66.43
25947;BME280;13745;51.470;9.894;2022-08-21T03:15:09;99482.53;;;17.58;66.42
25947;BME280;13745;51.470;9.894;2022-08-21T03:17:57;99490.31;;;17.56;66.64
25947;BME280;13745;51.470;9.894;2022-08-21T03:20:43;99486.44;;;17.57;66.71
25947;BME280;13745;51.470;9.894;2022-08-21T03:23:30;99497.72;;;17.56;66.73
25947;BME280;13745;51.470;9.894;2022-08-21T03:26:16;99490.97;;;17.53;66.76
25947;BME280;13745;51.470;9.894;2022-08-21T03:29:02;99489.84;;;17.54;66.74
25947;BME280;13745;51.470;9.894;2022-08-21T03:31:48;99501.25;;;17.56;66.71
25947;BME280;13745;51.470;9.894;2022-08-21T03:34:35;99494.84;;;17.52;66.82
25947;BME280;13745;51.470;9.894;2022-08-21T03:37:21;99502.59;;;17.50;66.73
25947;BME280;13745;51.470;9.894;2022-08-21T03:40:10;99493.00;;;17.45;66.80
25947;BME280;13745;51.470;9.894;2022-08-21T03:42:56;99497.41;;;17.37;66.78
25947;BME280;13745;51.470;9.894;2022-08-21T03:45:42;99508.34;;;17.37;66.85
25947;BME280;13745;51.470;9.894;2022-08-21T03:48:28;99505.41;;;17.42;66.78
25947;BME280;13745;51.470;9.894;2022-08-21T03:51:16;99487.50;;;17.45;66.88
25947;BME280;13745;51.470;9.894;2022-08-21T03:54:02;99492.31;;;17.48;66.73
25947;BME280;13745;51.470;9.894;2022-08-21T03:56:48;99491.84;;;17.46;66.67
25947;BME280;13745;51.470;9.894;2022-08-21T03:59:34;99500.75;;;17.43;66.76
25947;BME280;13745;51.470;9.894;2022-08-21T04:02:21;99506.22;;;17.43;66.59
25947;BME280;13745;51.470;9.894;2022-08-21T04:05:08;99511.53;;;17.39;66.68
25947;BME280;13745;51.470;9.894;2022-08-21T04:07:57;99516.22;;;17.39;66.46
25947;BME280;13745;51.470;9.894;2022-08-21T04:10:43;99511.41;;;17.36;66.39
25947;BME280;13745;51.470;9.894;2022-08-21T04:13:30;99515.97;;;17.32;66.40
25947;BME280;13745;51.470;9.894;2022-08-21T04:16:16;99518.78;;;17.24;66.69
25947;BME280;13745;51.470;9.894;2022-08-21T04:19:02;99514.91;;;17.25;66.61
25947;BME280;13745;51.470;9.894;2022-08-21T04:21:48;99517.28;;;17.26;66.57
25947;BME280;13745;51.470;9.894;2022-08-21T04:24:36;99523.56;;;17.26;66.65
25947;BME280;13745;51.470;9.894;2022-08-21T04:27:22;99525.16;;;17.27;66.63
25947;BME280;13745;51.470;9.894;2022-08-21T04:30:09;99528.06;;;17.31;66.51
25947;BME280;13745;51.470;9.894;2022-08-21T04:32:56;99536.28;;;17.31;66.66
25947;BME280;13745;51.470;9.894;2022-08-21T04:35:42;99534.66;;;17.30;66.58
25947;BME280;13745;51.470;9.894;2022-08-21T04:38:28;99534.00;;;17.33;66.38
25947;BME280;13745;51.470;9.894;2022-08-21T04:41:17;99543.34;;;17.32;66.57
25947;BME280;13745;51.470;9.894;2022-08-21T04:44:03;99549.50;;;17.29;66.54
25947;BME280;13745;51.470;9.894;2022-08-21T04:46:48;99540.16;;;17.30;66.63
25947;BME280;13745;51.470;9.894;2022-08-21T04:49:34;99552.22;;;17.29;66.54
25947;BME280;13745;51.470;9.894;2022-08-21T04:52:21;99549.34;;;17.26;66.66
25947;BME280;13745;51.470;9.894;2022-08-21T04:55:08;99553.38;;;17.28;66.55
25947;BME280;13745;51.470;9.894;2022-08-21T04:57:56;99546.41;;;17.30;66.58
25947;BME280;13745;51.470;9.894;2022-08-21T05:00:43;99548.81;;;17.32;66.68
25947;BME280;13745;51.470;9.894;2022-08-21T05:03:30;99548.81;;;17.32;66.63
25947;BME280;13745;51.470;9.894;2022-08-21T05:06:18;99550.41;;;17.33;66.77
25947;BME280;13745;51.470;9.894;2022-08-21T05:09:04;99544.94;;;17.33;66.82
25947;BME280;13745;51.470;9.894;2022-08-21T05:11:50;99556.81;;;17.37;66.86
25947;BME280;13745;51.470;9.894;2022-08-21T05:14:38;99558.38;;;17.46;66.64
25947;BME280;13745;51.470;9.894;2022-08-21T05:17:24;99551.22;;;17.53;66.67
25947;BME280;13745;51.470;9.894;2022-08-21T05:20:11;99561.75;;;17.63;66.66
25947;BME280;13745;51.470;9.894;2022-08-21T05:22:58;99565.22;;;17.72;66.53
25947;BME280;13745;51.470;9.894;2022-08-21T05:25:44;99560.47;;;17.81;66.52
25947;BME280;13745;51.470;9.894;2022-08-21T05:28:30;99564.41;;;17.92;66.33
25947;BME280;13745;51.470;9.894;2022-08-21T05:31:17;99561.72;;;18.03;65.99
25947;BME280;13745;51.470;9.894;2022-08-21T05:34:03;99565.16;;;18.12;65.98
25947;BME280;13745;51.470;9.894;2022-08-21T05:36:49;99563.59;;;18.23;65.82
25947;BME280;13745;51.470;9.894;2022-08-21T05:39:35;99560.75;;;18.31;65.78
25947;BME280;13745;51.470;9.894;2022-08-21T05:42:21;99556.31;;;18.38;65.69
25947;BME280;13745;51.470;9.894;2022-08-21T05:45:07;99568.66;;;18.44;65.62
25947;BME280;13745;51.470;9.894;2022-08-21T05:47:54;99560.00;;;18.54;65.54
25947;BME280;13745;51.470;9.894;2022-08-21T05:50:40;99563.88;;;18.65;65.54
25947;BME280;13745;51.470;9.894;2022-08-21T05:53:26;99563.22;;;18.68;65.54
25947;BME280;13745;51.470;9.894;2022-08-21T05:56:12;99558.88;;;18.79;65.44
25947;BME280;13745;51.470;9.894;2022-08-21T05:58:58;99563.81;;;18.85;65.37
25947;BME280;13745;51.470;9.894;2022-08-21T06:01:44;99557.75;;;18.91;65.40
25947;BME280;13745;51.470;9.894;2022-08-21T06:04:35;99565.75;;;18.96;65.35
25947;BME280;13745;51.470;9.894;2022-08-21T06:07:21;99571.69;;;19.10;65.29
25947;BME280;13745;51.470;9.894;2022-08-21T06:10:08;99561.94;;;19.24;65.16
25947;BME280;13745;51.470;9.894;2022-08-21T06:12:53;99563.94;;;19.39;65.07
25947;BME280;13745;51.470;9.894;2022-08-21T06:15:40;99561.53;;;19.49;65.08
25947;BME280;13745;51.470;9.894;2022-08-21T06:18:26;99567.25;;;19.56;64.98
25947;BME280;13745;51.470;9.894;2022-08-21T06:21:13;99557.16;;;19.60;64.86
25947;BME280;13745;51.470;9.894;2022-08-21T06:23:59;99556.25;;;19.68;64.85
25947;BME280;13745;51.470;9.894;2022-08-21T06:26:45;99565.34;;;19.83;64.69
25947;BME280;13745;51.470;9.894;2022-08-21T06:29:31;99555.53;;;19.97;64.36
25947;BME280;13745;51.470;9.894;2022-08-21T06:32:17;99569.31;;;20.13;64.25
25947;BME280;13745;51.470;9.894;2022-08-21T06:35:04;99571.13;;;20.20;64.21
25947;BME280;13745;51.470;9.894;2022-08-21T06:37:51;99567.59;;;20.35;64.12
25947;BME280;13745;51.470;9.894;2022-08-21T06:40:38;99561.75;;;20.52;63.72
25947;BME280;13745;51.470;9.894;2022-08-21T06:43:23;99563.91;;;20.73;63.43
25947;BME280;13745;51.470;9.894;2022-08-21T06:46:10;99559.72;;;20.94;63.05
25947;BME280;13745;51.470;9.894;2022-08-21T06:48:56;99566.50;;;21.15;62.77
25947;BME280;13745;51.470;9.894;2022-08-21T06:51:42;99565.38;;;21.32;62.72
25947;BME280;13745;51.470;9.894;2022-08-21T06:54:29;99559.00;;;21.46;62.47
25947;BME280;13745;51.470;9.894;2022-08-21T06:57:17;99565.38;;;21.50;62.40
25947;BME280;13745;51.470;9.894;2022-08-21T07:00:04;99562.69;;;21.54;62.31
25947;BME280;13745;51.470;9.894;2022-08-21T07:02:50;99562.56;;;21.47;62.50
25947;BME280;13745;51.470;9.894;2022-08-21T07:05:36;99561.69;;;21.43;62.62
25947;BME280;13745;51.470;9.894;2022-08-21T07:08:22;99559.19;;;21.38;62.67
25947;BME280;13745;51.470;9.894;2022-08-21T07:11:13;99550.22;;;21.41;62.43
25947;BME280;13745;51.470;9.894;2022-08-21T07:14:00;99554.09;;;21.55;62.42
25947;BME280;13745;51.470;9.894;2022-08-21T07:16:46;99549.69;;;21.69;62.15
25947;BME280;13745;51.470;9.894;2022-08-21T07:19:32;99554.75;;;21.86;62.16
25947;BME280;13745;51.470;9.894;2022-08-21T07:22:18;99540.09;;;22.00;61.91
25947;BME280;13745;51.470;9.894;2022-08-21T07:25:06;99536.00;;;22.13;61.89
25947;BME280;13745;51.470;9.894;2022-08-21T07:27:53;99532.81;;;22.30;61.68
25947;BME280;13745;51.470;9.894;2022-08-21T07:30:39;99539.44;;;22.47;61.66
25947;BME280;13745;51.470;9.894;2022-08-21T07:33:27;99536.53;;;22.63;61.26
25947;BME280;13745;51.470;9.894;2022-08-21T07:36:13;99536.44;;;22.78;61.12
25947;BME280;13745;51.470;9.894;2022-08-21T07:38:59;99532.38;;;22.94;60.86
25947;BME280;13745;51.470;9.894;2022-08-21T07:41:45;99529.50;;;23.13;60.52
25947;BME280;13745;51.470;9.894;2022-08-21T07:44:32;99532.53;;;23.30;60.56
25947;BME280;13745;51.470;9.894;2022-08-21T07:47:18;99523.72;;;23.46;60.06
25947;BME280;13745;51.470;9.894;2022-08-21T07:50:05;99522.72;;;23.61;59.74
25947;BME280;13745;51.470;9.894;2022-08-21T07:52:51;99524.47;;;23.76;59.30
25947;BME280;13745;51.470;9.894;2022-08-21T07:55:38;99525.06;;;23.91;59.00
25947;BME280;13745;51.470;9.894;2022-08-21T07:58:23;99528.50;;;24.10;59.00
25947;BME280;13745;51.470;9.894;2022-08-21T08:01:11;99526.69;;;24.28;58.56
25947;BME280;13745;51.470;9.894;2022-08-21T08:03:57;99521.75;;;24.44;58.13
25947;BME280;13745;51.470;9.894;2022-08-21T08:06:42;99526.22;;;24.58;57.96
25947;BME280;13745;51.470;9.894;2022-08-21T08:09:28;99520.06;;;24.75;57.63
25947;BME280;13745;51.470;9.894;2022-08-21T08:12:14;99520.63;;;24.94;57.25
25947;BME280;13745;51.470;9.894;2022-08-21T08:15:01;99515.59;;;25.13;56.76
25947;BME280;13745;51.470;9.894;2022-08-21T08:17:48;99516.88;;;25.26;56.05
25947;BME280;13745;51.470;9.894;2022-08-21T08:20:33;99509.06;;;25.41;55.60
25947;BME280;13745;51.470;9.894;2022-08-21T08:23:19;99509.16;;;25.55;54.91
25947;BME280;13745;51.470;9.894;2022-08-21T08:26:05;99502.88;;;25.68;54.63
25947;BME280;13745;51.470;9.894;2022-08-21T08:28:51;99504.53;;;25.83;54.22
25947;BME280;13745;51.470;9.894;2022-08-21T08:31:37;99504.22;;;25.98;53.89
25947;BME280;13745;51.470;9.894;2022-08-21T08:34:25;99514.16;;;26.16;53.38
25947;BME280;13745;51.470;9.894;2022-08-21T08:37:11;99498.75;;;26.36;52.95
25947;BME280;13745;51.470;9.894;2022-08-21T08:39:57;99499.97;;;26.55;52.65
25947;BME280;13745;51.470;9.894;2022-08-21T08:42:43;99500.00;;;26.76;52.24
25947;BME280;13745;51.470;9.894;2022-08-21T08:45:32;99500.00;;;26.97;51.93
25947;BME280;13745;51.470;9.894;2022-08-21T08:48:34;99493.63;;;27.30;50.67
25947;BME280;13745;51.470;9.894;2022-08-21T08:51:25;99497.06;;;27.65;50.07
25947;BME280;13745;51.470;9.894;2022-08-21T08:54:17;99502.97;;;27.94;48.78
25947;BME280;13745;51.470;9.894;2022-08-21T08:57:09;99490.00;;;28.28;47.69
25947;BME280;13745;51.470;9.894;2022-08-21T08:59:56;99489.63;;;28.26;47.66
25947;BME280;13745;51.470;9.894;2022-08-21T09:02:45;99496.97;;;27.96;47.67
25947;BME280;13745;51.470;9.894;2022-08-21T09:05:40;99489.09;;;27.74;47.86
25947;BME280;13745;51.470;9.894;2022-08-21T09:08:38;99490.34;;;27.52;47.83
25947;BME280;13745;51.470;9.894;2022-08-21T09:11:32;99485.59;;;27.49;47.50
25947;BME280;13745;51.470;9.894;2022-08-21T09:14:26;99491.03;;;27.94;46.21
25947;BME280;13745;51.470;9.894;2022-08-21T09:17:26;99492.25;;;28.53;44.98
25947;BME280;13745;51.470;9.894;2022-08-21T09:20:23;99481.19;;;28.89;44.34
25947;BME280;13745;51.470;9.894;2022-08-21T09:23:21;99484.16;;;29.19;43.89
25947;BME280;13745;51.470;9.894;2022-08-21T09:26:15;99488.25;;;29.47;43.40
25947;BME280;13745;51.470;9.894;2022-08-21T09:29:01;99491.78;;;30.42;42.41
25947;BME280;13745;51.470;9.894;2022-08-21T09:31:47;99492.38;;;32.61;39.25
25947;BME280;13745;51.470;9.894;2022-08-21T09:34:33;99487.13;;;32.79;37.88
25947;BME280;13745;51.470;9.894;2022-08-21T09:37:20;99490.41;;;31.70;38.79
25947;BME280;13745;51.470;9.894;2022-08-21T09:40:26;99481.63;;;30.81;39.08
25947;BME280;13745;51.470;9.894;2022-08-21T09:43:19;99486.38;;;30.03;39.48
25947;BME280;13745;51.470;9.894;2022-08-21T09:46:09;99491.19;;;30.58;38.44
25947;BME280;13745;51.470;9.894;2022-08-21T09:48:57;99485.03;;;31.14;36.61
25947;BME280;13745;51.470;9.894;2022-08-21T09:51:50;99491.34;;;36.36;29.27
25947;BME280;13745;51.470;9.894;2022-08-21T09:54:39;99490.47;;;40.46;24.39
25947;BME280;13745;51.470;9.894;2022-08-21T09:57:27;99498.53;;;41.63;23.19
25947;BME280;13745;51.470;9.894;2022-08-21T10:00:34;99490.47;;;41.81;22.78
25947;BME280;13745;51.470;9.894;2022-08-21T10:03:21;99494.19;;;44.91;19.83
25947;BME280;13745;51.470;9.894;2022-08-21T10:06:09;99483.31;;;47.26;18.06
25947;BME280;13745;51.470;9.894;2022-08-21T10:09:04;99480.84;;;47.58;17.52
25947;BME280;13745;51.470;9.894;2022-08-21T10:12:05;99478.91;;;48.75;16.86
25947;BME280;13745;51.470;9.894;2022-08-21T10:15:00;99472.19;;;49.54;16.14
25947;BME280;13745;51.470;9.894;2022-08-21T10:17:54;99470.22;;;49.75;15.59
25947;BME280;13745;51.470;9.894;2022-08-21T10:20:46;99468.94;;;49.70;15.48
25947;BME280;13745;51.470;9.894;2022-08-21T10:23:45;99471.22;;;48.16;16.54
25947;BME280;13745;51.470;9.894;2022-08-21T10:26:43;99458.31;;;44.79;18.67
25947;BME280;13745;51.470;9.894;2022-08-21T10:29:45;99448.38;;;41.66;20.80
25947;BME280;13745;51.470;9.894;2022-08-21T10:32:43;99434.03;;;39.97;22.20
25947;BME280;13745;51.470;9.894;2022-08-21T10:35:37;99436.91;;;38.41;23.70
25947;BME280;13745;51.470;9.894;2022-08-21T10:38:56;99435.34;;;36.73;25.28
25947;BME280;13745;51.470;9.894;2022-08-21T10:42:01;99439.59;;;35.88;26.11
25947;BME280;13745;51.470;9.894;2022-08-21T10:45:01;99431.19;;;35.21;26.18
25947;BME280;13745;51.470;9.894;2022-08-21T10:47:54;99429.69;;;34.71;26.49
25947;BME280;13745;51.470;9.894;2022-08-21T10:50:46;99424.84;;;34.11;26.92
25947;BME280;13745;51.470;9.894;2022-08-21T10:53:41;99426.09;;;33.70;27.50
25947;BME280;13745;51.470;9.894;2022-08-21T10:56:32;99429.31;;;33.68;27.31
25947;BME280;13745;51.470;9.894;2022-08-21T10:59:25;99424.78;;;33.31;27.94
25947;BME280;13745;51.470;9.894;2022-08-21T11:02:15;99415.66;;;32.83;28.67
25947;BME280;13745;51.470;9.894;2022-08-21T11:05:09;99419.91;;;32.41;28.82
25947;BME280;13745;51.470;9.894;2022-08-21T11:08:02;99423.72;;;32.15;29.00
25947;BME280;13745;51.470;9.894;2022-08-21T11:10:53;99417.44;;;32.27;28.68
25947;BME280;13745;51.470;9.894;2022-08-21T11:13:45;99420.16;;;32.30;28.71
25947;BME280;13745;51.470;9.894;2022-08-21T11:16:36;99420.03;;;31.64;29.70
25947;BME280;13745;51.470;9.894;2022-08-21T11:19:28;99421.66;;;31.24;30.04
25947;BME280;13745;51.470;9.894;2022-08-21T11:22:20;99409.22;;;31.06;30.22
25947;BME280;13745;51.470;9.894;2022-08-21T11:25:17;99419.06;;;30.91;30.16
25947;BME280;13745;51.470;9.894;2022-08-21T11:28:10;99415.63;;;31.03;30.06
25947;BME280;13745;51.470;9.894;2022-08-21T11:31:04;99403.06;;;30.91;29.90
25947;BME280;13745;51.470;9.894;2022-08-21T11:34:06;99407.03;;;30.94;29.48
25947;BME280;13745;51.470;9.894;2022-08-21T11:37:01;99404.78;;;31.27;29.33
25947;BME280;13745;51.470;9.894;2022-08-21T11:39:58;99398.28;;;31.33;28.86
25947;BME280;13745;51.470;9.894;2022-08-21T11:42:50;99392.47;;;31.44;28.82
25947;BME280;13745;51.470;9.894;2022-08-21T11:45:44;99401.88;;;31.72;29.02
25947;BME280;13745;51.470;9.894;2022-08-21T11:48:38;99401.75;;;31.95;28.71
25947;BME280;13745;51.470;9.894;2022-08-21T11:51:30;99399.91;;;32.07;28.21
25947;BME280;13745;51.470;9.894;2022-08-21T11:54:24;99396.78;;;32.02;28.58
25947;BME280;13745;51.470;9.894;2022-08-21T11:57:17;99394.75;;;32.21;28.08
25947;BME280;13745;51.470;9.894;2022-08-21T12:00:13;99396.56;;;32.28;28.19
25947;BME280;13745;51.470;9.894;2022-08-21T12:03:07;99391.25;;;32.33;27.76
25947;BME280;13745;51.470;9.894;2022-08-21T12:05:57;99395.88;;;32.40;27.46
25947;BME280;13745;51.470;9.894;2022-08-21T12:08:45;99387.66;;;32.48;27.30
25947;BME280;13745;51.470;9.894;2022-08-21T12:11:31;99380.81;;;32.65;27.63
25947;BME280;13745;51.470;9.894;2022-08-21T12:14:18;99385.56;;;32.84;26.97
25947;BME280;13745;51.470;9.894;2022-08-21T12:17:08;99388.25;;;32.87;26.64
25947;BME280;13745;51.470;9.894;2022-08-21T12:19:59;99377.66;;;32.79;26.94
25947;BME280;13745;51.470;9.894;2022-08-21T12:22:52;99379.16;;;32.83;27.10
25947;BME280;13745;51.470;9.894;2022-08-21T12:25:41;99387.03;;;32.88;27.52
25947;BME280;13745;51.470;9.894;2022-08-21T12:28:28;99376.25;;;32.87;27.14
25947;BME280;13745;51.470;9.894;2022-08-21T12:31:20;99366.34;;;32.66;26.71
25947;BME280;13745;51.470;9.894;2022-08-21T12:34:09;99369.03;;;32.54;27.00
25947;BME280;13745;51.470;9.894;2022-08-21T12:36:58;99375.75;;;32.44;26.84
25947;BME280;13745;51.470;9.894;2022-08-21T12:39:47;99373.34;;;32.27;27.16
25947;BME280;13745;51.470;9.894;2022-08-21T12:42:46;99376.25;;;32.24;27.04
25947;BME280;13745;51.470;9.894;2022-08-21T12:45:40;99374.81;;;32.16;27.01
25947;BME280;13745;51.470;9.894;2022-08-21T12:48:33;99374.13;;;32.12;27.27
25947;BME280;13745;51.470;9.894;2022-08-21T12:51:26;99366.06;;;32.14;27.52
25947;BME280;13745;51.470;9.894;2022-08-21T12:54:23;99360.31;;;32.21;27.58
25947;BME280;13745;51.470;9.894;2022-08-21T12:57:19;99365.66;;;32.31;27.84
25947;BME280;13745;51.470;9.894;2022-08-21T13:00:07;99357.50;;;32.37;27.74
25947;BME280;13745;51.470;9.894;2022-08-21T13:02:56;99358.19;;;32.41;27.93
25947;BME280;13745;51.470;9.894;2022-08-21T13:05:43;99354.88;;;32.45;27.84
25947;BME280;13745;51.470;9.894;2022-08-21T13:08:33;99358.81;;;32.48;27.98
25947;BME280;13745;51.470;9.894;2022-08-21T13:11:21;99354.66;;;32.52;27.30
25947;BME280;13745;51.470;9.894;2022-08-21T13:14:23;99350.38;;;32.48;27.55
25947;BME280;13745;51.470;9.894;2022-08-21T13:17:10;99359.75;;;32.42;27.46
25947;BME280;13745;51.470;9.894;2022-08-21T13:20:00;99344.34;;;32.34;27.41
25947;BME280;13745;51.470;9.894;2022-08-21T13:22:46;99348.19;;;32.24;27.78
25947;BME280;13745;51.470;9.894;2022-08-21T13:25:36;99346.28;;;32.21;27.29
25947;BME280;13745;51.470;9.894;2022-08-21T13:28:22;99342.59;;;32.24;27.92
25947;BME280;13745;51.470;9.894;2022-08-21T13:31:09;99336.38;;;32.32;27.75
25947;BME280;13745;51.470;9.894;2022-08-21T13:33:56;99344.69;;;32.36;27.54
25947;BME280;13745;51.470;9.894;2022-08-21T13:36:43;99347.25;;;32.46;27.67
25947;BME280;13745;51.470;9.894;2022-08-21T13:39:29;99341.00;;;32.39;27.30
25947;BME280;13745;51.470;9.894;2022-08-21T13:42:16;99338.75;;;32.34;27.42
25947;BME280;13745;51.470;9.894;2022-08-21T13:45:02;99338.41;;;32.32;27.01
25947;BME280;13745;51.470;9.894;2022-08-21T13:47:48;99346.28;;;32.21;27.26
25947;BME280;13745;51.470;9.894;2022-08-21T13:50:36;99344.50;;;32.11;27.37
25947;BME280;13745;51.470;9.894;2022-08-21T13:53:30;99335.09;;;32.02;27.22
25947;BME280;13745;51.470;9.894;2022-08-21T13:56:23;99331.31;;;31.93;27.76
25947;BME280;13745;51.470;9.894;2022-08-21T13:59:11;99340.59;;;31.90;27.85
25947;BME280;13745;51.470;9.894;2022-08-21T14:01:59;99334.63;;;31.88;27.45
25947;BME280;13745;51.470;9.894;2022-08-21T14:04:51;99329.13;;;31.84;27.37
25947;BME280;13745;51.470;9.894;2022-08-21T14:07:41;99327.56;;;31.83;27.70
25947;BME280;13745;51.470;9.894;2022-08-21T14:10:28;99331.84;;;31.88;28.02
25947;BME280;13745;51.470;9.894;2022-08-21T14:13:34;99326.91;;;31.76;27.63
25947;BME280;13745;51.470;9.894;2022-08-21T14:16:26;99321.53;;;31.66;27.55
25947;BME280;13745;51.470;9.894;2022-08-21T14:19:19;99337.56;;;31.65;27.79
25947;BME280;13745;51.470;9.894;2022-08-21T14:22:39;99329.88;;;31.50;27.60
25947;BME280;13745;51.470;9.894;2022-08-21T14:25:37;99320.78;;;31.27;27.46
25947;BME280;13745;51.470;9.894;2022-08-21T14:28:26;99328.03;;;31.25;27.91
25947;BME280;13745;51.470;9.894;2022-08-21T14:31:16;99325.25;;;31.06;27.68
25947;BME280;13745;51.470;9.894;2022-08-21T14:34:04;99316.81;;;30.86;28.05
25947;BME280;13745;51.470;9.894;2022-08-21T14:36:49;99327.91;;;30.71;28.52
25947;BME280;13745;51.470;9.894;2022-08-21T14:39:35;99322.59;;;30.57;29.33
25947;BME280;13745;51.470;9.894;2022-08-21T14:42:21;99321.88;;;30.50;29.20
25947;BME280;13745;51.470;9.894;2022-08-21T14:45:14;99323.22;;;30.42;29.01
25947;BME280;13745;51.470;9.894;2022-08-21T14:48:00;99319.34;;;30.36;29.22
25947;BME280;13745;51.470;9.894;2022-08-21T14:50:47;99324.31;;;30.25;29.49
25947;BME280;13745;51.470;9.894;2022-08-21T14:53:33;99317.66;;;30.16;29.92